createdAt,value
2023-04-29T00:02:55.958Z,99801.00
2023-04-29T00:06:58.784Z,99794.73
2023-04-29T00:11:01.654Z,99788.65
2023-04-29T00:15:04.792Z,99787.00
2023-04-29T00:19:07.570Z,99785.16
2023-04-29T00:23:10.415Z,99786.65
2023-04-29T00:27:13.392Z,99789.27
2023-04-29T00:31:16.500Z,99791.06
2023-04-29T00:35:19.613Z,99787.76
2023-04-29T00:39:22.386Z,99783.41
2023-04-29T00:43:25.295Z,99780.21
2023-04-29T00:47:28.366Z,99777.66
2023-04-29T00:51:31.206Z,99771.16
2023-04-29T00:55:34.280Z,99774.08
2023-04-29T00:59:37.965Z,99777.88
2023-04-29T01:03:41.884Z,99779.00
2023-04-29T01:07:54.004Z,99780.29
2023-04-29T01:12:11.109Z,99781.52
2023-04-29T01:16:21.770Z,99781.30
2023-04-29T01:20:26.195Z,99784.08
2023-04-29T01:24:29.235Z,99783.52
2023-04-29T01:28:34.994Z,99781.05
2023-04-29T01:32:37.870Z,99784.94
2023-04-29T01:37:05.545Z,99781.74
2023-04-29T01:41:11.033Z,99781.73
2023-04-29T01:45:17.190Z,99774.73
2023-04-29T01:49:20.783Z,99771.10
2023-04-29T01:53:23.651Z,99768.70
2023-04-29T01:57:26.650Z,99766.36
2023-04-29T02:01:29.587Z,99763.99
2023-04-29T02:05:34.296Z,99761.30
2023-04-29T02:09:37.529Z,99754.96
2023-04-29T02:13:40.803Z,99750.92
2023-04-29T02:17:43.630Z,99747.63
2023-04-29T02:21:46.598Z,99746.70
2023-04-29T02:25:49.398Z,99748.77
2023-04-29T02:29:52.349Z,99746.66
2023-04-29T02:33:55.762Z,99742.41
2023-04-29T02:37:58.813Z,99736.16
2023-04-29T02:42:01.833Z,99738.85
2023-04-29T02:46:05.225Z,99744.54
2023-04-29T02:50:08.311Z,99744.09
2023-04-29T02:54:11.963Z,99741.59
2023-04-29T02:58:14.932Z,99740.65
2023-04-29T03:02:17.815Z,99740.21
2023-04-29T03:06:21.048Z,99736.11
2023-04-29T03:10:23.904Z,99732.19
2023-04-29T03:14:26.943Z,99721.65
2023-04-29T03:18:29.965Z,99715.34
2023-04-29T03:22:32.928Z,99716.45
2023-04-29T03:26:35.818Z,99721.30
2023-04-29T03:30:38.951Z,99715.89
2023-04-29T03:34:42.237Z,99706.57
2023-04-29T03:38:51.995Z,99716.45
2023-04-29T03:42:55.277Z,99716.03
2023-04-29T03:46:58.194Z,99725.48
2023-04-29T03:51:01.170Z,99728.70
2023-04-29T03:55:04.286Z,99728.77
2023-04-29T03:59:07.643Z,99728.60
2023-04-29T04:03:10.654Z,99732.42
2023-04-29T04:07:13.557Z,99724.75
2023-04-29T04:11:16.546Z,99730.67
2023-04-29T04:15:19.424Z,99733.36
2023-04-29T04:19:22.268Z,99736.91
2023-04-29T04:23:25.167Z,99744.02
2023-04-29T04:27:28.390Z,99741.05
2023-04-29T04:31:31.416Z,99744.25
2023-04-29T04:35:34.332Z,99737.11
2023-04-29T04:39:37.340Z,99730.19
2023-04-29T04:43:41.540Z,99729.89
2023-04-29T04:47:44.568Z,99721.59
2023-04-29T04:51:47.464Z,99726.47
2023-04-29T04:55:50.374Z,99723.64
2023-04-29T04:59:53.338Z,99721.52
2023-04-29T05:03:56.453Z,99728.92
2023-04-29T05:07:59.293Z,99729.52
2023-04-29T05:12:02.134Z,99729.38
2023-04-29T05:16:06.661Z,99730.45
2023-04-29T05:20:09.837Z,99738.44
2023-04-29T05:24:12.689Z,99738.23
2023-04-29T05:28:15.616Z,99735.11
2023-04-29T05:32:18.488Z,99740.48
2023-04-29T05:36:25.556Z,99750.50
2023-04-29T05:40:28.465Z,99758.54
2023-04-29T05:44:31.218Z,99757.98
2023-04-29T05:48:34.033Z,99757.98
2023-04-29T05:52:36.854Z,99758.17
2023-04-29T05:56:39.769Z,99762.02
2023-04-29T06:00:43.939Z,99766.33
2023-04-29T06:04:47.975Z,99771.60
2023-04-29T06:08:50.863Z,99771.99
2023-04-29T06:12:53.695Z,99776.27
2023-04-29T06:16:57.273Z,99776.25
2023-04-29T06:21:00.084Z,99777.70
2023-04-29T06:25:02.873Z,99774.99
2023-04-29T06:29:25.500Z,99776.73
2023-04-29T06:33:30.519Z,99774.64
2023-04-29T06:41:37.348Z,99775.98
2023-04-29T06:46:05.514Z,99778.94
2023-04-29T06:55:03.916Z,99776.38
2023-04-29T06:59:07.919Z,99771.38
2023-04-29T07:03:11.461Z,99767.52
2023-04-29T07:07:43.487Z,99771.13
2023-04-29T07:11:46.119Z,99770.08
2023-04-29T07:15:48.744Z,99770.00
2023-04-29T07:19:51.671Z,99772.40
2023-04-29T07:23:55.578Z,99773.32
2023-04-29T07:28:01.971Z,99766.61
2023-04-29T07:32:04.710Z,99767.79
2023-04-29T07:36:07.572Z,99768.55
2023-04-29T07:40:10.324Z,99770.23
2023-04-29T07:44:13.018Z,99775.39
2023-04-29T07:48:17.102Z,99780.82
2023-04-29T07:52:19.766Z,99790.27
2023-04-29T07:56:37.470Z,99793.11
2023-04-29T08:00:40.292Z,99800.79
2023-04-29T08:04:54.918Z,99803.02
2023-04-29T08:08:57.958Z,99796.59
2023-04-29T08:13:08.327Z,99802.41
2023-04-29T08:17:11.325Z,99808.11
2023-04-29T08:21:14.294Z,99810.45
2023-04-29T08:25:17.729Z,99802.68
2023-04-29T08:29:20.636Z,99804.82
2023-04-29T08:33:23.370Z,99803.09
2023-04-29T08:37:26.101Z,99806.14
2023-04-29T08:41:28.975Z,99806.25
2023-04-29T08:45:33.980Z,99805.79
2023-04-29T08:49:38.305Z,99797.16
2023-04-29T08:53:41.194Z,99792.89
2023-04-29T08:57:44.834Z,99790.46
2023-04-29T09:01:51.965Z,99788.99
2023-04-29T09:05:56.224Z,99789.86
2023-04-29T09:10:04.847Z,99793.36
2023-04-29T09:14:09.420Z,99795.23
2023-04-29T09:18:12.050Z,99796.06
2023-04-29T09:22:14.949Z,99804.66
2023-04-29T09:26:18.811Z,99805.14
2023-04-29T09:30:22.474Z,99808.58
2023-04-29T09:34:37.529Z,99811.92
2023-04-29T09:38:54.114Z,99814.45
2023-04-29T09:42:57.818Z,99819.11
2023-04-29T09:47:03.310Z,99822.05
2023-04-29T09:51:07.358Z,99827.55
2023-04-29T09:55:11.069Z,99833.79
2023-04-29T09:59:14.490Z,99830.99
2023-04-29T10:03:17.950Z,99827.08
2023-04-29T10:07:21.463Z,99831.27
2023-04-29T10:11:25.249Z,99829.54
2023-04-29T10:15:37.171Z,99826.61
2023-04-29T10:20:05.994Z,99824.69
2023-04-29T10:24:11.284Z,99821.98
2023-04-29T10:28:17.112Z,99827.75
2023-04-29T10:32:22.310Z,99827.49
2023-04-29T10:36:26.392Z,99825.13
2023-04-29T10:40:37.007Z,99818.32
2023-04-29T10:44:59.101Z,99814.04
2023-04-29T10:49:03.779Z,99813.47
2023-04-29T10:53:06.977Z,99816.85
2023-04-29T10:57:20.547Z,99820.48
2023-04-29T11:01:40.504Z,99820.50
2023-04-29T11:05:46.169Z,99822.39
2023-04-29T11:10:14.704Z,99828.56
2023-04-29T11:14:22.529Z,99830.40
2023-04-29T11:18:25.937Z,99829.02
2023-04-29T11:22:34.060Z,99824.81
2023-04-29T11:45:50.933Z,99820.74
2023-04-29T11:50:04.982Z,99829.39
2023-04-29T11:54:08.919Z,99827.91
2023-04-29T11:58:11.596Z,99821.63
2023-04-29T12:02:14.617Z,99815.73
2023-04-29T12:06:17.217Z,99818.02
2023-04-29T12:10:18.951Z,99822.54
2023-04-29T12:14:37.009Z,99829.25
2023-04-29T12:18:44.855Z,99825.75
2023-04-29T12:23:22.278Z,99823.27
2023-04-29T12:27:35.647Z,99825.24
2023-04-29T12:31:47.617Z,99826.33
2023-04-29T12:36:02.560Z,99826.11
2023-04-29T12:40:23.346Z,99821.80
2023-04-29T12:44:45.284Z,99815.60
2023-04-29T12:49:02.454Z,99817.36
2023-04-29T12:53:17.152Z,99820.92
2023-04-29T12:57:45.012Z,99815.14
2023-04-29T13:01:53.630Z,99809.02
2023-04-29T13:06:06.841Z,99807.79
2023-04-29T13:10:20.562Z,99808.41
2023-04-29T13:14:25.943Z,99806.56
2023-04-29T13:18:36.756Z,99802.67
2023-04-29T13:22:48.078Z,99801.61
2023-04-29T13:26:55.853Z,99805.06
2023-04-29T13:36:46.716Z,99809.27
2023-04-29T13:40:51.460Z,99810.55
2023-04-29T13:45:00.229Z,99807.67
2023-04-29T13:49:29.353Z,99808.94
2023-04-29T13:54:01.798Z,99812.31
2023-04-29T14:02:23.078Z,99809.55
2023-04-29T14:06:17.743Z,99817.63
2023-04-29T14:10:32.790Z,99829.45
2023-04-29T14:14:35.406Z,99835.71
2023-04-29T14:18:36.936Z,99841.95
2023-04-29T14:22:38.802Z,99861.85
2023-04-29T14:26:41.232Z,99859.89
2023-04-29T14:30:46.160Z,99868.06
2023-04-29T14:34:48.943Z,99875.77
2023-04-29T14:38:50.893Z,99876.45
2023-04-29T14:42:53.216Z,99875.41
2023-04-29T14:46:54.875Z,99882.84
2023-04-29T14:50:56.895Z,99889.54
2023-04-29T14:54:59.891Z,99891.81
2023-04-29T14:59:01.686Z,99894.77
2023-04-29T15:03:10.331Z,99888.27
2023-04-29T15:07:26.039Z,99893.27
2023-04-29T15:11:30.405Z,99895.27
2023-04-29T15:15:32.012Z,99896.96
2023-04-29T15:19:44.350Z,99905.13
2023-04-29T15:23:45.861Z,99916.45
2023-04-29T15:27:47.403Z,99924.73
2023-04-29T15:31:49.400Z,99931.21
2023-04-29T15:35:51.032Z,99935.75
2023-04-29T15:39:53.077Z,99937.54
2023-04-29T15:43:58.265Z,99946.90
2023-04-29T15:48:00.210Z,99948.41
2023-04-29T15:52:04.062Z,99952.77
2023-04-29T15:56:05.698Z,99961.13
2023-04-29T16:00:08.385Z,99961.99
2023-04-29T16:04:50.510Z,99961.54
2023-04-29T16:08:54.335Z,99967.26
2023-04-29T16:12:56.114Z,99973.98
2023-04-29T16:17:07.623Z,99973.46
2023-04-29T16:21:09.408Z,99978.19
2023-04-29T16:25:12.866Z,99982.89
2023-04-29T16:29:14.659Z,99993.79
2023-04-29T16:33:16.190Z,100000.23
2023-04-29T16:37:17.617Z,100010.48
2023-04-29T16:41:19.320Z,100019.41
2023-04-29T16:45:23.636Z,100029.20
2023-04-29T16:49:26.079Z,100037.02
2023-04-29T16:53:27.926Z,100038.08
2023-04-29T16:57:29.810Z,100042.52
2023-04-29T17:06:15.491Z,100054.45
2023-04-29T17:10:17.696Z,100056.58
2023-04-29T17:14:19.568Z,100059.59
2023-04-29T17:18:21.495Z,100071.02
2023-04-29T17:22:23.443Z,100086.11
2023-04-29T17:26:25.396Z,100089.17
2023-04-29T17:30:27.416Z,100093.73
2023-04-29T17:34:30.500Z,100098.40
2023-04-29T17:38:35.650Z,100108.16
2023-04-29T17:42:37.723Z,100117.16
2023-04-29T17:46:40.052Z,100119.17
2023-04-29T17:50:42.045Z,100119.57
2023-04-29T17:54:43.798Z,100119.62
2023-04-29T17:58:45.621Z,100128.66
2023-04-29T18:02:47.475Z,100130.83
2023-04-29T18:06:49.274Z,100139.52
2023-04-29T18:10:51.267Z,100145.85
2023-04-29T18:14:53.259Z,100152.77
2023-04-29T18:18:56.888Z,100158.32
2023-04-29T18:22:59.083Z,100163.89
2023-04-29T18:27:01.710Z,100173.20
2023-04-29T18:31:03.478Z,100176.20
2023-04-29T18:35:05.919Z,100181.79
2023-04-29T18:39:07.857Z,100182.94
2023-04-29T18:43:11.250Z,100194.88
2023-04-29T18:47:12.978Z,100197.94
2023-04-29T18:51:14.590Z,100204.05
2023-04-29T18:55:16.498Z,100203.27
2023-04-29T18:59:21.058Z,100207.70
2023-04-29T19:03:22.971Z,100208.50
2023-04-29T19:07:24.834Z,100214.48
2023-04-29T19:11:26.743Z,100215.79
2023-04-29T19:15:32.065Z,100217.14
2023-04-29T19:19:34.003Z,100221.02
2023-04-29T19:23:36.132Z,100223.07
2023-04-29T19:27:44.435Z,100227.65
2023-04-29T19:31:46.876Z,100231.85
2023-04-29T19:35:48.856Z,100235.79
2023-04-29T19:39:51.600Z,100242.96
2023-04-29T19:43:54.756Z,100242.64
2023-04-29T19:47:58.973Z,100246.46
2023-04-29T19:52:02.969Z,100249.91
2023-04-29T19:56:05.010Z,100256.07
2023-04-29T20:00:08.911Z,100260.14
2023-04-29T20:04:12.577Z,100261.52
2023-04-29T20:08:15.929Z,100260.73
2023-04-29T20:12:18.007Z,100260.60
2023-04-29T20:16:23.095Z,100264.44
2023-04-29T20:20:25.579Z,100268.94
2023-04-29T20:24:27.343Z,100276.83
2023-04-29T20:28:31.273Z,100279.91
2023-04-29T20:32:33.197Z,100286.11
2023-04-29T20:36:35.580Z,100288.84
2023-04-29T20:40:37.232Z,100290.55
2023-04-29T20:44:39.013Z,100297.34
2023-04-29T20:48:40.847Z,100306.27
2023-04-29T20:52:43.952Z,100311.82
2023-04-29T20:56:46.373Z,100312.41
2023-04-29T21:00:48.197Z,100314.52
2023-04-29T21:04:50.560Z,100326.04
2023-04-29T21:08:52.858Z,100334.67
2023-04-29T21:12:54.665Z,100334.03
2023-04-29T21:16:57.077Z,100349.65
2023-04-29T21:21:00.278Z,100355.92
2023-04-29T21:25:04.611Z,100361.36
2023-04-29T21:29:07.458Z,100370.62
2023-04-29T21:33:09.999Z,100373.17
2023-04-29T21:37:14.732Z,100375.94
2023-04-29T21:41:22.756Z,100379.42
2023-04-29T21:45:24.961Z,100383.69
2023-04-29T21:49:27.817Z,100380.84
2023-04-29T21:53:29.591Z,100384.02
2023-04-29T21:57:43.553Z,100383.55
2023-04-29T22:01:48.286Z,100385.98
2023-04-29T22:05:50.561Z,100387.71
2023-04-29T22:09:52.718Z,100391.84
2023-04-29T22:13:56.166Z,100393.79
2023-04-29T22:17:58.710Z,100396.06
2023-04-29T22:22:02.409Z,100403.07
2023-04-29T22:26:04.536Z,100407.11
2023-04-29T22:30:08.427Z,100412.84
2023-04-29T22:34:12.131Z,100415.28
2023-04-29T22:38:14.526Z,100418.02
2023-04-29T22:42:17.648Z,100419.02
2023-04-29T22:46:19.518Z,100423.30
2023-04-29T22:50:21.402Z,100425.61
2023-04-29T22:54:23.980Z,100429.54
2023-04-29T22:58:26.205Z,100430.55
2023-04-29T23:02:30.043Z,100433.11
2023-04-29T23:06:35.236Z,100435.25
2023-04-29T23:10:41.128Z,100430.81
2023-04-29T23:14:44.964Z,100434.84
2023-04-29T23:18:47.294Z,100431.28
2023-04-29T23:22:51.665Z,100433.61
2023-04-29T23:26:53.378Z,100431.64
2023-04-29T23:30:55.243Z,100438.45
2023-04-29T23:34:57.865Z,100435.06
2023-04-29T23:39:00.676Z,100435.11
2023-04-29T23:43:02.737Z,100439.88
2023-04-29T23:47:05.400Z,100441.58
2023-04-29T23:51:07.614Z,100438.29
2023-04-29T23:55:11.016Z,100441.77
2023-04-29T23:59:13.084Z,100444.75
